Time;durP1;ratioP1;P1;durP2;ratioP2;P2;SDS_P1;SDS_P2;PMS_P1;PMS_P2;Temp;Humidity;BMP_temperature;BMP_pressure;BME280_temperature;BME280_humidity;BME280_pressure;Samples;Min_cycle;Max_cycle;Signal;HPM_P1;HPM_P2
2022/05/05 00:01:40;;;;;;;14.50;13.90;;;;;;;-141.02;100.00;55844.97;5094796;28;20265;-76
2022/05/05 00:04:07;;;;;;;14.73;14.13;;;;;;;-141.02;100.00;55844.97;5094548;28;20842;-77
2022/05/05 00:06:34;;;;;;;14.47;13.87;;;;;;;-141.02;100.00;55844.97;5094808;28;20182;-77
2022/05/05 00:09:01;;;;;;;15.20;14.50;;;;;;;-141.02;100.00;55844.97;5094976;28;20225;-76
2022/05/05 00:14:27;;;;;;;15.20;14.50;;;;;;;-141.02;100.00;55844.97;5095214;28;20660;-77
2022/05/05 00:16:58;;;;;;;14.90;14.30;;;;;;;-141.02;100.00;55844.97;5094899;28;20194;-76
2022/05/05 00:19:27;;;;;;;14.90;14.30;;;;;;;-141.02;100.00;55844.97;5094472;28;20248;-78
2022/05/05 00:21:54;;;;;;;14.87;14.27;;;;;;;-141.02;100.00;55844.97;5094359;28;20652;-76
2022/05/05 00:24:22;;;;;;;14.53;13.93;;;;;;;-141.02;100.00;55844.97;5094395;28;20216;-77
2022/05/05 00:26:49;;;;;;;14.80;14.20;;;;;;;-141.02;100.00;55844.97;5094601;28;20281;-76
2022/05/05 00:29:16;;;;;;;15.00;14.40;;;;;;;-141.02;100.00;55844.97;5094619;28;20201;-76
2022/05/05 00:31:44;;;;;;;14.20;13.60;;;;;;;-141.02;100.00;55844.97;5094170;28;20190;-76
2022/05/05 00:34:12;;;;;;;14.37;13.77;;;;;;;-141.02;100.00;55844.97;5094487;28;20189;-75
2022/05/05 00:36:40;;;;;;;13.77;13.27;;;;;;;-141.02;100.00;55844.97;5094450;28;20273;-77
2022/05/05 00:39:08;;;;;;;13.67;13.17;;;;;;;-141.02;100.00;55844.97;5094276;28;20692;-76
2022/05/05 00:41:35;;;;;;;13.47;12.97;;;;;;;-141.02;100.00;55844.97;5093957;28;20233;-75
2022/05/05 00:44:04;;;;;;;13.50;13.00;;;;;;;-141.02;100.00;55844.97;5094003;28;20190;-76
2022/05/05 00:46:32;;;;;;;13.53;13.03;;;;;;;-141.02;100.00;55844.97;5093960;28;20201;-76
2022/05/05 00:48:59;;;;;;;13.50;13.00;;;;;;;-141.02;100.00;55844.97;5093859;28;20205;-75
2022/05/05 00:51:28;;;;;;;13.17;12.67;;;;;;;-141.02;100.00;55844.97;5094133;28;20229;-75
2022/05/05 00:53:56;;;;;;;13.40;12.90;;;;;;;-141.02;100.00;55844.97;5094064;28;20198;-75
2022/05/05 00:56:24;;;;;;;13.10;12.60;;;;;;;-141.02;100.00;55844.97;5093768;28;20652;-77
2022/05/05 00:58:51;;;;;;;12.60;12.20;;;;;;;-141.02;100.00;55844.97;5093715;28;20285;-75
2022/05/05 01:01:20;;;;;;;13.20;12.70;;;;;;;-141.02;100.00;55844.97;5093851;28;20222;-76
2022/05/05 01:03:49;;;;;;;12.70;12.20;;;;;;;-141.02;100.00;55844.97;5093718;28;20255;-75
2022/05/05 01:06:17;;;;;;;13.17;12.67;;;;;;;-141.02;100.00;55844.97;5093035;28;20734;-76
2022/05/05 01:08:46;;;;;;;13.23;12.73;;;;;;;-141.02;100.00;55844.97;5093520;28;20198;-76
2022/05/05 01:11:14;;;;;;;13.37;12.87;;;;;;;-141.02;100.00;55844.97;5094288;28;20251;-76
2022/05/05 01:13:42;;;;;;;13.47;12.97;;;;;;;-141.02;100.00;55844.97;5093463;28;20652;-76
2022/05/05 01:16:10;;;;;;;13.67;13.17;;;;;;;-141.02;100.00;55844.97;5093547;28;20280;-76
2022/05/05 01:18:37;;;;;;;13.83;13.30;;;;;;;-141.02;100.00;55844.97;5093303;28;20227;-76
2022/05/05 01:21:04;;;;;;;13.87;13.30;;;;;;;-141.02;100.00;55844.97;5093492;28;20229;-76
2022/05/05 01:23:33;;;;;;;14.00;13.40;;;;;;;-141.02;100.00;55844.97;5093160;28;20668;-75
2022/05/05 01:28:46;;;;;;;13.53;13.03;;;;;;;-141.02;100.00;55844.97;5093583;28;20317;-75
2022/05/05 01:31:13;;;;;;;14.00;13.50;;;;;;;-141.02;100.00;55844.97;5093333;28;20193;-77
2022/05/05 01:33:41;;;;;;;13.40;12.90;;;;;;;-141.02;100.00;55844.97;5093034;28;20220;-75
2022/05/05 01:36:08;;;;;;;13.90;13.40;;;;;;;-141.02;100.00;55844.97;5093268;28;20198;-75
2022/05/05 01:38:37;;;;;;;13.50;13.00;;;;;;;-141.02;100.00;55844.97;5092939;28;20198;-76
2022/05/05 01:41:06;;;;;;;13.90;13.33;;;;;;;-141.02;100.00;55844.97;5092829;28;20232;-76
2022/05/05 01:43:34;;;;;;;14.07;13.50;;;;;;;-141.02;100.00;55844.97;5092951;28;20206;-76
2022/05/05 01:46:01;;;;;;;13.87;13.37;;;;;;;-141.02;100.00;55844.97;5093224;28;20703;-75
2022/05/05 01:48:28;;;;;;;14.27;13.67;;;;;;;-141.02;100.00;55844.97;5092781;28;20730;-76
2022/05/05 01:50:55;;;;;;;14.20;13.60;;;;;;;-141.02;100.00;55844.97;5092720;28;20685;-77
2022/05/05 01:53:22;;;;;;;14.43;13.83;;;;;;;-141.02;100.00;55844.97;5092711;28;20247;-76
2022/05/05 01:55:51;;;;;;;14.50;13.90;;;;;;;-141.02;100.00;55844.97;5092826;28;20288;-77
2022/05/05 01:58:18;;;;;;;14.47;13.87;;;;;;;-141.02;100.00;55844.97;5092909;28;20328;-75
2022/05/05 02:00:45;;;;;;;14.50;13.90;;;;;;;-141.02;100.00;55844.97;5092884;28;20265;-76
2022/05/05 02:03:14;;;;;;;13.37;12.87;;;;;;;-141.02;100.00;55844.97;5092839;28;20281;-75
2022/05/05 02:05:42;;;;;;;13.40;12.90;;;;;;;-141.02;100.00;55844.97;5092448;28;20670;-76
2022/05/05 02:08:09;;;;;;;13.80;13.30;;;;;;;-141.02;100.00;55844.97;5092715;28;20224;-75
2022/05/05 02:10:37;;;;;;;13.23;12.73;;;;;;;-141.02;100.00;55844.97;5092452;28;20201;-75
2022/05/05 02:13:06;;;;;;;13.20;12.70;;;;;;;-141.02;100.00;55844.97;5093009;28;20233;-74
2022/05/05 02:15:34;;;;;;;12.57;12.17;;;;;;;-141.02;100.00;55844.97;5092370;28;20239;-75
2022/05/05 02:18:08;;;;;;;13.40;12.90;;;;;;;-141.02;100.00;55844.97;5092308;28;20692;-75
2022/05/05 02:20:36;;;;;;;12.77;12.37;;;;;;;-141.02;100.00;55844.97;5092274;28;20196;-74
2022/05/05 02:23:03;;;;;;;13.20;12.70;;;;;;;-141.02;100.00;55844.97;5092582;28;20660;-75
2022/05/05 02:25:30;;;;;;;12.60;12.20;;;;;;;-141.02;100.00;55844.97;5092204;28;20224;-75
2022/05/05 02:27:57;;;;;;;12.23;11.83;;;;;;;-141.02;100.00;55844.97;5092521;28;20277;-75
2022/05/05 02:30:27;;;;;;;12.60;12.20;;;;;;;-141.02;100.00;55844.97;5092140;28;20225;-75
2022/05/05 02:32:54;;;;;;;12.27;11.87;;;;;;;-141.02;100.00;55844.97;5092490;28;20212;-75
2022/05/05 02:35:21;;;;;;;11.63;11.23;;;;;;;-141.02;100.00;55844.97;5092166;28;20197;-75
2022/05/05 02:40:33;;;;;;;12.37;11.97;;;;;;;-141.02;100.00;55844.97;5092705;28;20181;-75
2022/05/05 02:43:01;;;;;;;11.83;11.43;;;;;;;-141.02;100.00;55844.97;5092281;28;20229;-75
2022/05/05 02:45:30;;;;;;;12.40;12.00;;;;;;;-141.02;100.00;55844.97;5091989;28;20682;-75
2022/05/05 02:47:57;;;;;;;11.93;11.53;;;;;;;-141.02;100.00;55844.97;5092279;28;20266;-75
2022/05/05 02:50:24;;;;;;;11.87;11.47;;;;;;;-141.02;100.00;55844.97;5091958;28;20613;-75
2022/05/05 02:52:51;;;;;;;11.67;11.27;;;;;;;-141.02;100.00;55844.97;5092205;28;20190;-75
2022/05/05 02:55:17;;;;;;;12.40;12.00;;;;;;;-141.02;100.00;55844.97;5091949;28;20281;-74
2022/05/05 02:57:44;;;;;;;11.73;11.33;;;;;;;-141.02;100.00;55844.97;5091931;28;20285;-74
2022/05/05 03:00:13;;;;;;;11.80;11.40;;;;;;;-141.02;100.00;55844.97;5091847;28;20201;-74
2022/05/05 03:02:42;;;;;;;12.00;11.60;;;;;;;-141.02;100.00;55844.97;5092104;28;20669;-75
2022/05/05 03:05:10;;;;;;;12.23;11.83;;;;;;;-141.02;100.00;55844.97;5091583;28;20320;-74
2022/05/05 03:07:38;;;;;;;11.87;11.47;;;;;;;-141.02;100.00;55844.97;5092205;28;20323;-75
2022/05/05 03:10:06;;;;;;;12.30;11.90;;;;;;;-141.02;100.00;55844.97;5092127;28;20229;-74
2022/05/05 03:12:33;;;;;;;11.60;11.20;;;;;;;-141.02;100.00;55844.97;5092080;28;20228;-75
2022/05/05 03:15:00;;;;;;;11.20;10.80;;;;;;;-141.02;100.00;55844.97;5092790;28;20221;-74
2022/05/05 03:17:27;;;;;;;12.03;11.63;;;;;;;-141.02;100.00;55844.97;5092202;28;20198;-74
2022/05/05 03:19:56;;;;;;;12.10;11.70;;;;;;;-141.02;100.00;55844.97;5092078;28;20197;-76
2022/05/05 03:22:23;;;;;;;11.70;11.30;;;;;;;-141.02;100.00;55844.97;5092126;28;20309;-74
2022/05/05 03:24:50;;;;;;;11.90;11.50;;;;;;;-141.02;100.00;55844.97;5091698;28;20679;-75
2022/05/05 03:27:17;;;;;;;12.03;11.63;;;;;;;-141.02;100.00;55844.97;5091858;28;20198;-74
2022/05/05 03:29:44;;;;;;;11.90;11.50;;;;;;;-141.02;100.00;55844.97;5094688;28;20224;-75
2022/05/05 03:32:11;;;;;;;11.80;11.40;;;;;;;-141.02;100.00;55844.97;5095745;28;20226;-74
2022/05/05 03:34:38;;;;;;;11.77;11.37;;;;;;;-141.02;100.00;55844.97;5095639;28;20285;-74
2022/05/05 03:37:06;;;;;;;11.90;11.50;;;;;;;-141.02;100.00;55844.97;5095308;28;20285;-74
2022/05/05 03:39:33;;;;;;;12.17;11.77;;;;;;;-141.02;100.00;55844.97;5095543;28;20198;-74
2022/05/05 03:42:00;;;;;;;11.70;11.30;;;;;;;-141.02;100.00;55844.97;5096329;28;20629;-74
2022/05/05 03:44:27;;;;;;;11.87;11.47;;;;;;;-141.02;100.00;55844.97;5095523;28;20194;-74
2022/05/05 03:46:54;;;;;;;11.40;11.00;;;;;;;-141.02;100.00;55844.97;5095377;28;20194;-74
2022/05/05 03:49:21;;;;;;;11.40;11.00;;;;;;;-141.02;100.00;55844.97;5095372;28;20201;-74
2022/05/05 03:51:49;;;;;;;12.60;12.20;;;;;;;-141.02;100.00;55844.97;5095050;28;20201;-75
2022/05/05 03:54:17;;;;;;;12.80;12.40;;;;;;;-141.02;100.00;55844.97;5095307;28;20221;-74
2022/05/05 03:56:45;;;;;;;12.93;12.43;;;;;;;-141.02;100.00;55844.97;5094930;28;20668;-73
2022/05/05 03:59:12;;;;;;;13.30;12.80;;;;;;;-141.02;100.00;55844.97;5094882;28;20204;-74
2022/05/05 04:01:39;;;;;;;14.20;13.60;;;;;;;-141.02;100.00;55844.97;5094946;28;20229;-74
2022/05/05 04:04:06;;;;;;;14.60;14.00;;;;;;;-141.02;100.00;55844.97;5094553;28;20635;-73
2022/05/05 04:06:33;;;;;;;15.13;14.43;;;;;;;-141.02;100.00;55844.97;5095106;28;20213;-73
2022/05/05 04:09:03;;;;;;;15.90;15.10;;;;;;;-141.02;100.00;55844.97;5094707;28;20193;-75
2022/05/05 04:11:31;;;;;;;16.30;15.40;;;;;;;-141.02;100.00;55844.97;5094651;28;20668;-74
2022/05/05 04:13:59;;;;;;;16.90;16.00;;;;;;;-141.02;100.00;55844.97;5094934;28;20702;-74
2022/05/05 04:16:26;;;;;;;16.70;15.70;;;;;;;-141.02;100.00;55844.97;5094506;28;20659;-74
2022/05/05 04:18:53;;;;;;;17.80;16.70;;;;;;;-141.02;100.00;55844.97;5094874;28;20233;-75
2022/05/05 04:21:20;;;;;;;19.00;17.70;;;;;;;-141.02;100.00;55844.97;5094379;28;20718;-74
2022/05/05 04:23:47;;;;;;;21.97;20.27;;;;;;;-141.02;100.00;55844.97;5094448;28;20259;-74
2022/05/05 04:26:15;;;;;;;33.53;31.33;;;;;;;-141.02;100.00;55844.97;5094390;28;20703;-75
2022/05/05 04:28:47;;;;;;;30.13;28.03;;;;;;;-141.02;100.00;55844.97;5094519;28;20637;-75
2022/05/05 04:31:16;;;;;;;20.77;19.27;;;;;;;-141.02;100.00;55844.97;5094615;28;20224;-73
2022/05/05 04:33:43;;;;;;;21.50;19.90;;;;;;;-141.02;100.00;55844.97;5094565;28;20311;-75
2022/05/05 04:36:12;;;;;;;21.35;19.75;;;;;;;-141.02;100.00;55844.97;5094193;28;20715;-74
2022/05/05 04:38:39;;;;;;;21.83;20.15;;;;;;;-141.02;100.00;55844.97;5094081;28;20193;-76
2022/05/05 04:41:06;;;;;;;21.63;20.03;;;;;;;-141.02;100.00;55844.97;5093261;28;20274;-74
2022/05/05 04:43:33;;;;;;;20.70;19.30;;;;;;;-141.02;100.00;55844.97;5094586;28;20262;-74
2022/05/05 04:46:02;;;;;;;20.13;18.83;;;;;;;-141.02;100.00;55844.97;5093993;28;20200;-73
2022/05/05 04:48:29;;;;;;;19.27;18.07;;;;;;;-141.02;100.00;55844.97;5093945;28;20251;-74
2022/05/05 04:50:56;;;;;;;16.17;15.37;;;;;;;-141.02;100.00;55844.97;5094187;28;20243;-74
2022/05/05 04:53:23;;;;;;;15.27;14.60;;;;;;;-141.02;100.00;55844.97;5094187;28;20205;-74
2022/05/05 04:55:50;;;;;;;15.20;14.50;;;;;;;-141.02;100.00;55844.97;5093776;28;20189;-73
2022/05/05 04:58:17;;;;;;;15.70;15.00;;;;;;;-141.02;100.00;55844.97;5094056;28;20198;-73
2022/05/05 05:00:45;;;;;;;16.43;15.63;;;;;;;-141.02;100.00;55844.97;5094020;28;20236;-74
2022/05/05 05:05:55;;;;;;;16.33;15.53;;;;;;;-141.02;100.00;55844.97;5093316;28;20780;-76
2022/05/05 05:08:22;;;;;;;17.30;16.40;;;;;;;-141.02;100.00;55844.97;5093842;28;20297;-75
2022/05/05 05:10:49;;;;;;;16.90;16.10;;;;;;;-141.02;100.00;55844.97;5093835;28;20666;-75
2022/05/05 05:13:16;;;;;;;15.83;15.20;;;;;;;-141.02;100.00;55844.97;5093742;28;20229;-76
2022/05/05 05:15:44;;;;;;;14.70;14.10;;;;;;;-141.02;100.00;55844.97;5093464;28;20197;-74
2022/05/05 05:18:11;;;;;;;14.60;14.07;;;;;;;-141.02;100.00;55844.97;5093371;28;20201;-74
2022/05/05 05:20:40;;;;;;;14.80;14.20;;;;;;;-141.02;100.00;55844.97;5093323;28;20285;-78
2022/05/05 05:23:07;;;;;;;13.93;13.43;;;;;;;-141.02;100.00;55844.97;5093548;28;20287;-73
2022/05/05 05:25:34;;;;;;;13.80;13.30;;;;;;;-141.02;100.00;55844.97;5093541;28;20209;-73
2022/05/05 05:28:01;;;;;;;14.00;13.50;;;;;;;-141.02;100.00;55844.97;5093497;28;20229;-74
2022/05/05 05:30:28;;;;;;;14.50;13.90;;;;;;;-141.02;100.00;55844.97;5093117;28;20208;-74
2022/05/05 05:32:55;;;;;;;15.20;14.60;;;;;;;-141.02;100.00;55844.97;5093413;28;20274;-73
2022/05/05 05:35:23;;;;;;;14.53;13.93;;;;;;;-141.02;100.00;55844.97;5093115;28;20197;-73
2022/05/05 05:37:52;;;;;;;14.10;13.60;;;;;;;-141.02;100.00;55844.97;5093318;28;20198;-73
2022/05/05 05:40:19;;;;;;;13.90;13.40;;;;;;;-141.02;100.00;55844.97;5093025;28;20194;-74
2022/05/05 05:42:46;;;;;;;14.57;13.97;;;;;;;-141.02;100.00;55844.97;5093160;28;20235;-74
2022/05/05 05:45:13;;;;;;;15.60;14.90;;;;;;;-141.02;100.00;55844.97;5092904;28;20229;-73
2022/05/05 05:47:40;;;;;;;14.73;14.13;;;;;;;-141.02;100.00;55844.97;5093127;28;20198;-74
2022/05/05 05:50:08;;;;;;;14.50;13.90;;;;;;;-141.02;100.00;55844.97;5093145;28;20255;-73
2022/05/05 05:52:35;;;;;;;14.60;14.00;;;;;;;-141.02;100.00;55844.97;5092916;28;20194;-74
2022/05/05 05:55:04;;;;;;;15.40;14.70;;;;;;;-141.02;100.00;55844.97;5092635;28;20576;-75
2022/05/05 05:57:31;;;;;;;14.70;14.10;;;;;;;-141.02;100.00;55844.97;5092797;28;20251;-74
2022/05/05 05:59:58;;;;;;;14.70;14.10;;;;;;;-141.02;100.00;55844.97;5092643;28;20698;-74
2022/05/05 06:05:10;;;;;;;15.30;14.60;;;;;;;-141.02;100.00;55844.97;5092586;28;20232;-74
2022/05/05 06:07:37;;;;;;;15.35;14.65;;;;;;;-141.02;100.00;55844.97;5093412;28;20197;-74
2022/05/05 06:10:06;;;;;;;15.32;14.63;;;;;;;-141.02;100.00;55844.97;5092805;28;20204;-74
2022/05/05 06:12:33;;;;;;;15.25;14.65;;;;;;;-141.02;100.00;55844.97;5092435;28;20618;-75
2022/05/05 06:15:00;;;;;;;15.77;15.07;;;;;;;-141.02;100.00;55844.97;5092708;28;20197;-75
2022/05/05 06:17:27;;;;;;;15.10;14.50;;;;;;;-141.02;100.00;55844.97;5092693;28;20263;-75
2022/05/05 06:19:54;;;;;;;15.25;14.55;;;;;;;-141.02;100.00;55844.97;5092358;28;20660;-75
2022/05/05 06:22:21;;;;;;;15.70;15.00;;;;;;;-141.02;100.00;55844.97;5092170;28;20675;-75
2022/05/05 06:24:48;;;;;;;14.95;14.35;;;;;;;-141.02;100.00;55844.97;5092290;28;20254;-75
2022/05/05 06:27:17;;;;;;;15.25;14.55;;;;;;;-141.02;100.00;55844.97;5092215;28;20193;-75
2022/05/05 06:29:44;;;;;;;14.95;14.35;;;;;;;-141.02;100.00;55844.97;5092519;28;20189;-75
2022/05/05 06:32:11;;;;;;;15.30;14.60;;;;;;;-141.02;100.00;55844.97;5092474;28;20229;-75
2022/05/05 06:34:38;;;;;;;15.80;15.10;;;;;;;-141.02;100.00;55844.97;5092154;28;20579;-74
2022/05/05 06:37:05;;;;;;;15.63;14.93;;;;;;;-141.02;100.00;55844.97;5092155;28;20240;-76
2022/05/05 06:39:32;;;;;;;14.68;14.07;;;;;;;-141.02;100.00;55844.97;5092004;28;20200;-77
2022/05/05 06:42:00;;;;;;;15.60;15.00;;;;;;;-141.02;100.00;55844.97;5093053;28;20637;-75
2022/05/05 06:44:28;;;;;;;16.00;15.30;;;;;;;-141.02;100.00;55844.97;5092469;28;20259;-77
2022/05/05 06:46:58;;;;;;;14.40;13.90;;;;;;;-141.02;100.00;55844.97;5091975;28;20731;-76
2022/05/05 06:49:25;;;;;;;14.13;13.63;;;;;;;-141.02;100.00;55844.97;5092343;28;20251;-77
2022/05/05 06:51:52;;;;;;;15.80;15.20;;;;;;;-141.02;100.00;55844.97;5092000;28;20571;-76
2022/05/05 06:54:19;;;;;;;15.10;14.50;;;;;;;-141.02;100.00;55844.97;5092299;28;20660;-77
2022/05/05 06:56:46;;;;;;;15.77;15.18;;;;;;;-141.02;100.00;55844.97;5093039;28;20198;-74
2022/05/05 06:59:13;;;;;;;15.40;14.80;;;;;;;-141.02;100.00;55844.97;5092210;28;20189;-80
2022/05/05 07:01:53;;;;;;;14.50;14.00;;;;;;;-141.02;100.00;55844.97;5092011;28;20196;-79
2022/05/05 07:07:06;;;;;;;15.65;15.05;;;;;;;-141.02;100.00;55844.97;5096652;28;20193;-77
2022/05/05 07:12:17;;;;;;;15.75;15.15;;;;;;;-141.02;100.00;55844.97;5096214;28;20299;-78
2022/05/05 07:14:45;;;;;;;15.07;14.48;;;;;;;-141.02;100.00;55844.97;5095850;28;20233;-79
2022/05/05 07:17:13;;;;;;;16.15;15.45;;;;;;;-141.02;100.00;55844.97;5095989;28;20201;-77
2022/05/05 07:19:41;;;;;;;15.10;14.50;;;;;;;-141.02;100.00;55844.97;5095715;28;20244;-79
2022/05/05 07:22:09;;;;;;;14.98;14.38;;;;;;;-141.02;100.00;55844.97;5095561;28;20236;-76
2022/05/05 07:24:36;;;;;;;14.63;14.02;;;;;;;-141.02;100.00;55844.97;5095597;28;20201;-78
2022/05/05 07:27:05;;;;;;;15.15;14.45;;;;;;;-141.02;100.00;55844.97;5095934;28;20263;-78
2022/05/05 07:29:32;;;;;;;15.00;14.40;;;;;;;-141.02;100.00;55844.97;5095464;28;20690;-78
2022/05/05 07:32:00;;;;;;;14.27;13.68;;;;;;;-141.02;100.00;55844.97;5095430;28;20619;-78
2022/05/05 07:34:28;;;;;;;13.93;13.32;;;;;;;-141.02;100.00;55844.97;5095679;28;20197;-81
2022/05/05 07:36:55;;;;;;;14.70;14.00;;;;;;;-141.02;100.00;55844.97;5095385;28;20196;-81
2022/05/05 07:39:23;;;;;;;14.90;14.20;;;;;;;-141.02;100.00;55844.97;5095875;28;20198;-79
2022/05/05 07:41:50;;;;;;;14.48;13.88;;;;;;;-141.02;100.00;55844.97;5095551;28;20196;-79
2022/05/05 07:44:18;;;;;;;14.00;13.40;;;;;;;-141.02;100.00;55844.97;5095166;28;20279;-79
2022/05/05 07:46:44;;;;;;;14.00;13.40;;;;;;;-141.02;100.00;55844.97;5095439;28;20190;-80
2022/05/05 07:49:12;;;;;;;14.25;13.55;;;;;;;-141.02;100.00;55844.97;5095082;28;20233;-80
2022/05/05 07:51:41;;;;;;;14.38;13.68;;;;;;;-141.02;100.00;55844.97;5095069;28;20206;-78
2022/05/05 07:56:52;;;;;;;14.75;14.05;;;;;;;-141.02;100.00;55844.97;5095850;28;20181;-81
2022/05/05 07:59:20;;;;;;;14.43;13.73;;;;;;;-141.02;100.00;55844.97;5095209;28;20226;-82
2022/05/05 08:01:47;;;;;;;14.88;14.18;;;;;;;-141.02;100.00;55844.97;5094883;28;20200;-80
2022/05/05 08:04:15;;;;;;;14.57;13.88;;;;;;;-141.02;100.00;55844.97;5094759;28;20280;-79
2022/05/05 08:06:43;;;;;;;13.52;12.93;;;;;;;-141.02;100.00;55844.97;5094891;28;20772;-81
2022/05/05 08:09:11;;;;;;;14.65;13.95;;;;;;;-141.02;100.00;55844.97;5095041;28;20293;-80
2022/05/05 08:11:39;;;;;;;13.77;13.18;;;;;;;-141.02;100.00;55844.97;5094715;28;20200;-79
2022/05/05 08:14:06;;;;;;;14.63;13.93;;;;;;;-141.02;100.00;55844.97;5094467;28;20190;-79
2022/05/05 08:16:34;;;;;;;14.82;14.13;;;;;;;-141.02;100.00;55844.97;5095592;28;20206;-77
2022/05/05 08:19:01;;;;;;;15.57;14.77;;;;;;;-141.02;100.00;55844.97;5094817;28;20190;-80
2022/05/05 08:21:28;;;;;;;14.68;13.98;;;;;;;-141.02;100.00;55844.97;5094531;28;20190;-80
2022/05/05 08:29:22;;;;;;;14.65;13.95;;;;;;;-141.02;100.00;55844.97;5094965;28;20184;-81
2022/05/05 08:31:49;;;;;;;15.05;14.35;;;;;;;-141.02;100.00;55844.97;5094615;28;20216;-81
2022/05/05 08:34:16;;;;;;;14.80;14.10;;;;;;;-141.02;100.00;55844.97;5094638;28;20189;-83
2022/05/05 08:36:43;;;;;;;15.43;14.63;;;;;;;-141.02;100.00;55844.97;5094251;28;20244;-81
2022/05/05 08:39:12;;;;;;;15.10;14.40;;;;;;;-141.02;100.00;55844.97;5094457;28;20245;-82
2022/05/05 08:41:40;;;;;;;15.48;14.68;;;;;;;-141.02;100.00;55844.97;5094111;28;20247;-81
2022/05/05 08:44:09;;;;;;;15.60;14.80;;;;;;;-141.02;100.00;55844.97;5094012;28;20577;-78
2022/05/05 08:46:36;;;;;;;16.05;15.15;;;;;;;-141.02;100.00;55844.97;5094241;28;20198;-81
2022/05/05 08:49:05;;;;;;;15.55;14.75;;;;;;;-141.02;100.00;55844.97;5094241;28;20304;-81
2022/05/05 08:51:39;;;;;;;16.23;15.32;;;;;;;-141.02;100.00;55844.97;5093889;28;20197;-80
2022/05/05 08:54:08;;;;;;;17.02;16.02;;;;;;;-141.02;100.00;55844.97;5094130;28;20666;-79
2022/05/05 08:56:37;;;;;;;17.00;16.00;;;;;;;-141.02;100.00;55844.97;5093882;28;20194;-79
2022/05/05 08:59:04;;;;;;;16.15;15.25;;;;;;;-141.02;100.00;55844.97;5093768;28;20194;-79
2022/05/05 09:01:38;;;;;;;17.25;16.25;;;;;;;-141.02;100.00;55844.97;5094029;28;20198;-81
2022/05/05 09:04:06;;;;;;;16.63;15.73;;;;;;;-141.02;100.00;55844.97;5093692;28;20213;-81
2022/05/05 09:06:44;;;;;;;17.15;16.15;;;;;;;-141.02;100.00;55844.97;5093678;28;20200;-77
2022/05/05 09:09:35;;;;;;;17.38;16.38;;;;;;;-141.02;100.00;55844.97;5093567;28;20255;-79
2022/05/05 09:12:12;;;;;;;16.80;15.90;;;;;;;-141.02;100.00;55844.97;5093565;28;20193;-80
2022/05/05 09:14:41;;;;;;;16.73;15.82;;;;;;;-141.02;100.00;55844.97;5093761;28;20199;-79
2022/05/05 09:17:10;;;;;;;17.13;16.13;;;;;;;-141.02;100.00;55844.97;5093686;28;20323;-79
2022/05/05 09:19:40;;;;;;;16.95;16.05;;;;;;;-141.02;100.00;55844.97;5093440;28;20190;-81
2022/05/05 09:22:08;;;;;;;17.40;16.40;;;;;;;-141.02;100.00;55844.97;5093588;28;20225;-79
2022/05/05 09:24:43;;;;;;;16.75;15.85;;;;;;;-141.02;100.00;55844.97;5093776;28;20229;-81
2022/05/05 09:27:23;;;;;;;17.17;16.20;;;;;;;-141.02;100.00;55844.97;5092758;28;20276;-78
2022/05/05 09:30:11;;;;;;;17.15;16.25;;;;;;;-141.02;100.00;55844.97;5093261;28;20190;-77
2022/05/05 09:32:40;;;;;;;17.67;16.77;;;;;;;-141.02;100.00;55844.97;5093983;28;20273;-80
2022/05/05 09:35:09;;;;;;;17.50;16.50;;;;;;;-141.02;100.00;55844.97;5093098;28;20198;-81
2022/05/05 09:37:37;;;;;;;17.80;16.90;;;;;;;-141.02;100.00;55844.97;5093032;28;20652;-78
2022/05/05 09:40:07;;;;;;;18.25;17.35;;;;;;;-141.02;100.00;55844.97;5093299;28;20225;-77
2022/05/05 09:42:37;;;;;;;18.25;17.35;;;;;;;-141.02;100.00;55844.97;5093463;28;20194;-77
2022/05/05 09:45:12;;;;;;;18.98;18.08;;;;;;;-141.02;100.00;55844.97;5093125;28;20225;-80
2022/05/05 09:47:41;;;;;;;19.00;18.10;;;;;;;-141.02;100.00;55844.97;5092859;28;20221;-79
2022/05/05 09:50:09;;;;;;;19.15;18.25;;;;;;;-141.02;100.00;55844.97;5092870;28;20285;-83
2022/05/05 09:58:09;;;;;;;19.83;18.83;;;;;;;-141.02;100.00;55844.97;5093259;28;20197;-81
2022/05/05 10:00:45;;;;;;;20.38;19.38;;;;;;;-141.02;100.00;55844.97;5092688;28;20204;-79
2022/05/05 10:05:59;;;;;;;19.92;19.02;;;;;;;-141.02;100.00;55844.97;5092900;28;20603;-80
2022/05/05 10:08:36;;;;;;;20.30;19.30;;;;;;;-141.02;100.00;55844.97;5092572;28;20194;-80
2022/05/05 10:11:06;;;;;;;20.42;19.42;;;;;;;-141.02;100.00;55844.97;5093477;28;20225;-82
2022/05/05 10:13:37;;;;;;;20.15;19.15;;;;;;;-141.02;100.00;55844.97;5092877;28;20269;-79
2022/05/05 10:16:05;;;;;;;19.52;18.63;;;;;;;-141.02;100.00;55844.97;5092711;28;20193;-78
2022/05/05 10:18:35;;;;;;;19.40;18.40;;;;;;;-141.02;100.00;55844.97;5092360;28;20204;-81
2022/05/05 10:21:03;;;;;;;19.35;18.45;;;;;;;-141.02;100.00;55844.97;5092694;28;20251;-83
2022/05/05 10:23:40;;;;;;;19.92;18.92;;;;;;;-141.02;100.00;55844.97;5092794;28;20239;-82
2022/05/05 10:26:10;;;;;;;19.80;18.80;;;;;;;-141.02;100.00;55844.97;5092293;28;20186;-85
2022/05/05 10:28:44;;;;;;;19.42;18.52;;;;;;;-141.02;100.00;55844.97;5092399;28;20198;-80
2022/05/05 10:31:13;;;;;;;19.98;19.08;;;;;;;-141.02;100.00;55844.97;5092586;28;20185;-82
2022/05/05 10:34:06;;;;;;;20.17;19.27;;;;;;;-141.02;100.00;55844.97;5092228;28;20679;-80
2022/05/05 10:36:35;;;;;;;20.35;19.38;;;;;;;-141.02;100.00;55844.97;5082462;28;20189;-80
2022/05/05 10:39:17;;;;;;;19.95;19.05;;;;;;;-141.02;100.00;55844.97;5091560;28;20190;-85
2022/05/05 10:41:44;;;;;;;19.85;18.95;;;;;;;-141.02;100.00;55844.97;5092791;28;20193;-83
2022/05/05 10:44:26;;;;;;;19.17;18.27;;;;;;;-141.02;100.00;55844.97;5092309;28;20230;-82
2022/05/05 10:46:54;;;;;;;19.20;18.30;;;;;;;-141.02;100.00;55844.97;5092831;28;20267;-79
2022/05/05 10:49:52;;;;;;;19.45;18.55;;;;;;;-141.02;100.00;55844.97;5092025;28;20234;-78
2022/05/05 10:52:30;;;;;;;19.10;18.20;;;;;;;-141.02;100.00;55844.97;5092465;28;20182;-77
2022/05/05 10:54:57;;;;;;;19.20;18.20;;;;;;;-141.02;100.00;55844.97;5092370;28;20219;-85
2022/05/05 10:57:44;;;;;;;19.05;18.05;;;;;;;-141.02;100.00;55844.97;5093049;28;20194;-80
2022/05/05 11:00:14;;;;;;;19.02;18.02;;;;;;;-141.02;100.00;55844.97;5092011;28;20194;-78
2022/05/05 11:03:02;;;;;;;19.08;18.08;;;;;;;-141.02;100.00;55844.97;5092079;28;20280;-77
2022/05/05 11:05:31;;;;;;;18.88;17.88;;;;;;;-141.02;100.00;55844.97;5091824;28;20238;-79
2022/05/05 11:08:32;;;;;;;18.73;17.73;;;;;;;-141.02;100.00;55844.97;5093514;28;20274;-77
2022/05/05 11:13:44;;;;;;;18.70;17.70;;;;;;;-141.02;100.00;55844.97;5092855;28;20189;-77
2022/05/05 11:22:09;;;;;;;18.30;17.30;;;;;;;-141.02;100.00;55844.97;5093109;28;20327;-82
2022/05/05 11:24:36;;;;;;;18.23;17.25;;;;;;;-141.02;100.00;55844.97;5091995;28;20282;-79
2022/05/05 11:27:04;;;;;;;18.30;17.30;;;;;;;-141.02;100.00;55844.97;5092956;28;20227;-76
2022/05/05 11:29:32;;;;;;;18.15;17.15;;;;;;;-141.02;100.00;55844.97;5092122;28;20625;-79
2022/05/05 11:32:04;;;;;;;18.05;17.05;;;;;;;-141.02;100.00;55844.97;5091805;28;20198;-80
2022/05/05 11:34:33;;;;;;;17.80;16.90;;;;;;;-141.02;100.00;55844.97;5091911;28;20185;-79
2022/05/05 11:37:00;;;;;;;18.00;17.10;;;;;;;-141.02;100.00;55844.97;5096167;28;20194;-78
2022/05/05 11:39:28;;;;;;;18.17;17.17;;;;;;;-141.02;100.00;55844.97;5099108;28;20190;-79
2022/05/05 11:42:03;;;;;;;17.95;17.05;;;;;;;-141.02;100.00;55844.97;5092064;28;20198;-79
2022/05/05 11:44:30;;;;;;;18.35;17.35;;;;;;;-141.02;100.00;55844.97;5091908;28;20707;-87
2022/05/05 11:47:09;;;;;;;18.45;17.45;;;;;;;-141.02;100.00;55844.97;5091943;28;20194;-79